Aviation Digital Data Service (ADDS)

Output produced by METARs form (1646 UTC 28 February 2017)
found at http://www.aviationweather.gov/adds/metars/
 
KMIV 281554Z AUTO 23005KT 10SM CLR 18/11 A3030 RMK AO2 SLP259 T01780106
KMIV 281120Z 2812/0112 00000KT P6SM BKN050 BKN090 
     FM281500 18005KT P6SM SCT250 
     FM282300 14005KT P6SM BKN040 OVC100 
     FM010200 16005KT 2SM SHRA BR BKN015 OVC025 
     FM010400 17005KT 2SM SHRA BR SCT003 OVC008 WS020/21035KT 
     FM010600 20008KT 2SM BR OVC003 WS020/22040KT